createdAt,value
2022-11-14T00:00:23.505Z,5.55
2022-11-14T00:02:49.981Z,5.20
2022-11-14T00:05:16.559Z,5.50
2022-11-14T00:07:42.917Z,5.20
2022-11-14T00:10:09.467Z,5.63
2022-11-14T00:12:35.843Z,6.22
2022-11-14T00:15:02.180Z,6.25
2022-11-14T00:17:28.552Z,5.95
2022-11-14T00:19:54.919Z,6.20
2022-11-14T00:22:21.287Z,6.20
2022-11-14T00:24:48.792Z,5.35
2022-11-14T00:27:15.389Z,5.82
2022-11-14T00:29:41.807Z,6.45
2022-11-14T00:32:08.136Z,6.30
2022-11-14T00:34:34.568Z,6.32
2022-11-14T00:37:01.123Z,6.25
2022-11-14T00:39:27.525Z,6.70
2022-11-14T00:41:53.961Z,5.78
2022-11-14T00:44:20.471Z,5.78
2022-11-14T00:46:46.851Z,6.32
2022-11-14T00:49:13.193Z,6.10
2022-11-14T00:51:39.537Z,6.18
2022-11-14T00:54:07.401Z,5.13
2022-11-14T00:56:34.128Z,5.68
2022-11-14T00:59:00.712Z,5.45
2022-11-14T01:01:27.163Z,5.13
2022-11-14T01:03:53.536Z,4.97
2022-11-14T01:06:20.264Z,5.35
2022-11-14T01:08:46.703Z,5.18
2022-11-14T01:11:17.135Z,5.43
2022-11-14T01:13:45.471Z,5.20
2022-11-14T01:16:12.108Z,5.40
2022-11-14T01:18:41.941Z,5.75
2022-11-14T01:21:11.035Z,5.57
2022-11-14T01:23:37.537Z,5.05
2022-11-14T01:26:13.316Z,5.40
2022-11-14T01:28:40.358Z,4.93
2022-11-14T01:31:17.001Z,5.60
2022-11-14T01:33:43.634Z,5.72
2022-11-14T01:36:10.786Z,6.30
2022-11-14T01:38:38.001Z,6.00
2022-11-14T01:41:04.747Z,6.55
2022-11-14T01:43:33.284Z,6.35
2022-11-14T01:46:05.029Z,6.82
2022-11-14T01:48:41.947Z,6.00
2022-11-14T01:51:59.436Z,5.63
2022-11-14T01:54:33.000Z,6.10
2022-11-14T01:57:02.432Z,6.00
2022-11-14T01:59:35.013Z,7.28
2022-11-14T02:02:05.033Z,7.47
2022-11-14T02:04:34.469Z,7.35
2022-11-14T02:07:02.640Z,8.82
2022-11-14T02:09:33.852Z,8.05
2022-11-14T02:12:01.118Z,7.28
2022-11-14T02:14:30.154Z,7.00
2022-11-14T02:17:22.655Z,7.07
2022-11-14T02:19:49.360Z,6.50
2022-11-14T02:22:16.032Z,6.75
2022-11-14T02:24:43.530Z,7.30
2022-11-14T02:27:10.366Z,6.93
2022-11-14T02:29:36.814Z,7.22
2022-11-14T02:32:08.076Z,8.23
2022-11-14T02:34:36.816Z,6.82
2022-11-14T02:37:03.175Z,8.23
2022-11-14T02:39:29.491Z,7.50
2022-11-14T02:41:55.852Z,7.88
2022-11-14T02:44:22.398Z,8.18
2022-11-14T02:46:48.745Z,7.63
2022-11-14T02:49:15.101Z,7.60
2022-11-14T02:51:41.437Z,8.00
2022-11-14T02:54:07.965Z,7.72
2022-11-14T02:56:34.360Z,7.63
2022-11-14T02:59:00.681Z,7.53
2022-11-14T03:01:27.175Z,7.13
2022-11-14T03:03:53.736Z,6.82
2022-11-14T03:06:20.065Z,7.50
2022-11-14T03:08:46.402Z,7.80
2022-11-14T03:11:12.767Z,7.38
2022-11-14T03:13:39.072Z,8.45
2022-11-14T03:16:10.470Z,6.47
2022-11-14T03:18:36.993Z,7.72
2022-11-14T03:21:07.892Z,7.45
2022-11-14T03:23:34.266Z,6.60
2022-11-14T03:26:02.116Z,6.80
2022-11-14T03:28:29.142Z,6.35
2022-11-14T03:30:55.731Z,7.65
2022-11-14T03:33:22.625Z,7.15
2022-11-14T03:35:50.729Z,6.88
2022-11-14T03:38:18.355Z,7.10
2022-11-14T03:40:45.039Z,7.18
2022-11-14T03:43:11.599Z,7.20
2022-11-14T03:45:38.037Z,6.95
2022-11-14T03:48:05.880Z,7.55
2022-11-14T03:50:32.395Z,6.50
2022-11-14T03:52:58.710Z,6.85
2022-11-14T03:55:25.234Z,7.30
2022-11-14T03:57:51.592Z,6.68
2022-11-14T04:00:18.441Z,6.70
2022-11-14T04:02:44.765Z,6.57
2022-11-14T04:05:11.105Z,6.43
2022-11-14T04:07:37.460Z,6.85
2022-11-14T04:10:04.158Z,6.60
2022-11-14T04:12:30.456Z,6.63
2022-11-14T04:14:56.874Z,6.25
2022-11-14T04:17:23.246Z,6.70
2022-11-14T04:19:50.331Z,6.38
2022-11-14T04:22:16.666Z,6.70
2022-11-14T04:24:42.995Z,6.07
2022-11-14T04:27:09.328Z,7.53
2022-11-14T04:29:35.674Z,6.90
2022-11-14T04:32:02.010Z,7.60
2022-11-14T04:34:28.361Z,7.53
2022-11-14T04:36:54.702Z,7.97
2022-11-14T04:39:21.008Z,7.40
2022-11-14T04:41:47.322Z,8.00
2022-11-14T04:44:13.637Z,6.97
2022-11-14T04:46:39.951Z,7.90
2022-11-14T04:49:06.251Z,7.35
2022-11-14T04:51:32.596Z,7.72
2022-11-14T04:53:58.913Z,8.85
2022-11-14T04:56:25.491Z,8.48
2022-11-14T04:58:51.814Z,8.18
2022-11-14T05:01:18.251Z,8.55
2022-11-14T05:03:44.606Z,9.15
2022-11-14T05:06:11.231Z,8.63
2022-11-14T05:08:37.558Z,8.60
2022-11-14T05:11:04.082Z,8.25
2022-11-14T05:13:30.914Z,9.20
2022-11-14T05:16:01.198Z,9.10
2022-11-14T05:18:27.838Z,10.00
2022-11-14T05:20:58.092Z,9.55
2022-11-14T05:23:24.443Z,9.93
2022-11-14T05:26:00.490Z,10.85
2022-11-14T05:28:26.999Z,12.27
2022-11-14T05:30:53.463Z,11.20
2022-11-14T05:33:19.815Z,10.98
2022-11-14T05:35:46.380Z,10.95
2022-11-14T05:38:12.685Z,10.88
2022-11-14T05:40:38.998Z,9.35
2022-11-14T05:43:05.331Z,10.00
2022-11-14T05:45:31.636Z,9.77
2022-11-14T05:47:57.974Z,11.50
2022-11-14T05:50:24.294Z,12.60
2022-11-14T05:52:50.625Z,13.73
2022-11-14T05:55:21.837Z,14.32
2022-11-14T05:57:50.861Z,13.68
2022-11-14T06:00:17.432Z,13.65
2022-11-14T06:02:46.025Z,13.73
2022-11-14T06:05:12.350Z,13.77
2022-11-14T06:07:39.056Z,14.60
2022-11-14T06:10:05.782Z,14.23
2022-11-14T06:12:32.484Z,14.18
2022-11-14T06:14:58.809Z,14.23
2022-11-14T06:17:25.124Z,14.25
2022-11-14T06:19:51.453Z,14.85
2022-11-14T06:22:17.804Z,14.48
2022-11-14T06:24:44.157Z,14.40
2022-11-14T06:27:10.622Z,14.27
2022-11-14T06:29:36.994Z,15.57
2022-11-14T06:32:03.569Z,14.27
2022-11-14T06:34:29.900Z,14.88
2022-11-14T06:36:56.275Z,14.95
2022-11-14T06:39:22.675Z,14.60
2022-11-14T06:41:48.988Z,14.00
2022-11-14T06:44:15.377Z,16.02
2022-11-14T06:46:41.716Z,14.27
2022-11-14T06:49:08.038Z,16.77
2022-11-14T06:51:34.410Z,17.65
2022-11-14T06:54:00.785Z,18.63
2022-11-14T06:56:27.148Z,16.95
2022-11-14T06:58:53.477Z,14.95
2022-11-14T07:01:22.271Z,16.48
2022-11-14T07:03:49.044Z,15.25
2022-11-14T07:06:18.682Z,14.55
2022-11-14T07:08:45.077Z,15.50
2022-11-14T07:11:22.767Z,15.65
2022-11-14T07:14:07.231Z,13.98
2022-11-14T07:16:35.219Z,15.45
2022-11-14T07:19:04.069Z,16.40
2022-11-14T07:21:31.384Z,17.77
2022-11-14T07:23:57.935Z,16.27
2022-11-14T07:26:24.292Z,17.00
2022-11-14T07:28:53.023Z,18.92
2022-11-14T07:31:21.318Z,19.13
2022-11-14T07:33:47.782Z,18.15
2022-11-14T07:36:15.754Z,19.60
2022-11-14T07:38:42.234Z,20.33
2022-11-14T07:41:13.390Z,19.80
2022-11-14T07:43:39.885Z,20.73
2022-11-14T07:46:14.364Z,19.45
2022-11-14T07:48:40.914Z,20.88
2022-11-14T07:51:10.271Z,20.45
2022-11-14T07:53:36.673Z,21.27
2022-11-14T07:56:05.693Z,21.77
2022-11-14T07:58:32.316Z,21.63
2022-11-14T08:01:02.485Z,21.17
2022-11-14T08:03:28.999Z,21.95
2022-11-14T08:06:06.784Z,22.52
2022-11-14T08:08:33.494Z,22.23
2022-11-14T08:11:00.880Z,23.10
2022-11-14T08:13:33.028Z,22.33
2022-11-14T08:16:11.957Z,23.25
2022-11-14T08:18:39.476Z,24.05
2022-11-14T08:21:06.170Z,23.88
2022-11-14T08:23:32.509Z,23.63
2022-11-14T08:25:59.893Z,24.08
2022-11-14T08:28:26.353Z,24.15
2022-11-14T08:30:52.776Z,26.05
2022-11-14T08:33:19.103Z,24.30
2022-11-14T08:35:45.433Z,23.10
2022-11-14T08:38:11.787Z,23.23
2022-11-14T08:40:39.772Z,23.23
2022-11-14T08:43:06.156Z,26.83
2022-11-14T08:45:32.498Z,25.33
2022-11-14T08:47:59.000Z,25.83
2022-11-14T08:50:25.438Z,25.08
2022-11-14T08:52:52.235Z,24.98
2022-11-14T08:55:19.514Z,23.60
2022-11-14T08:57:49.443Z,22.90
2022-11-14T09:00:16.953Z,23.05
2022-11-14T09:02:43.338Z,21.52
2022-11-14T09:05:09.701Z,20.77
2022-11-14T09:07:36.480Z,19.80
2022-11-14T09:10:03.471Z,20.80
2022-11-14T09:12:29.851Z,20.50
2022-11-14T09:14:56.276Z,21.05
2022-11-14T09:17:22.596Z,21.27
2022-11-14T09:19:48.978Z,20.13
2022-11-14T09:22:15.351Z,20.70
2022-11-14T09:24:41.765Z,21.02
2022-11-14T09:27:15.247Z,19.92
2022-11-14T09:29:41.707Z,19.85
2022-11-14T09:32:08.014Z,19.67
2022-11-14T09:34:34.424Z,21.33
2022-11-14T09:37:00.928Z,20.42
2022-11-14T09:39:27.262Z,19.65
2022-11-14T09:42:17.300Z,20.10
2022-11-14T09:44:59.872Z,19.08
2022-11-14T09:47:30.335Z,20.77
2022-11-14T09:50:05.646Z,20.30
2022-11-14T09:52:37.623Z,19.58
2022-11-14T09:55:13.357Z,19.00
2022-11-14T09:57:44.076Z,19.38
2022-11-14T10:00:19.284Z,18.13
2022-11-14T10:03:14.007Z,19.42
2022-11-14T10:09:02.592Z,17.92
2022-11-14T10:11:41.408Z,18.80
2022-11-14T10:14:19.857Z,17.73
2022-11-14T10:17:24.353Z,17.95
2022-11-14T10:20:07.384Z,16.30
2022-11-14T10:23:01.132Z,16.88
2022-11-14T10:25:48.475Z,17.33
2022-11-14T10:28:42.120Z,16.88
2022-11-14T10:31:22.980Z,16.85
2022-11-14T10:34:09.481Z,16.45
2022-11-14T10:36:50.826Z,15.73
2022-11-14T10:39:29.594Z,16.38
2022-11-14T10:42:00.864Z,15.95
2022-11-14T10:44:39.421Z,15.40
2022-11-14T10:47:12.565Z,15.90
2022-11-14T10:49:38.957Z,16.40
2022-11-14T10:52:11.121Z,16.33
2022-11-14T10:54:46.294Z,15.45
2022-11-14T10:57:20.266Z,15.43
2022-11-14T10:59:47.305Z,15.43
2022-11-14T11:02:14.406Z,15.05
2022-11-14T11:04:42.308Z,14.50
2022-11-14T11:07:08.642Z,14.25
2022-11-14T11:09:55.578Z,14.35
2022-11-14T11:12:41.796Z,14.68
2022-11-14T11:15:20.135Z,14.77
2022-11-14T11:18:02.747Z,13.60
2022-11-14T11:20:38.052Z,13.93
2022-11-14T11:23:25.487Z,14.27
2022-11-14T11:26:09.020Z,13.82
2022-11-14T11:28:36.377Z,15.00
2022-11-14T11:31:10.875Z,14.43
2022-11-14T11:33:39.258Z,14.88
2022-11-14T11:36:10.593Z,14.70
2022-11-14T11:38:36.922Z,14.35
2022-11-14T11:41:15.611Z,15.18
2022-11-14T11:43:58.636Z,14.75
2022-11-14T11:46:41.027Z,14.10
2022-11-14T11:49:42.988Z,14.45
2022-11-14T11:52:18.280Z,13.98
2022-11-14T11:55:08.898Z,14.07
2022-11-14T11:57:47.040Z,13.77
2022-11-14T12:00:17.995Z,14.93
2022-11-14T12:02:50.507Z,14.27
2022-11-14T12:05:18.939Z,13.80
2022-11-14T12:07:49.924Z,13.93
2022-11-14T12:10:24.084Z,13.50
2022-11-14T12:16:22.181Z,13.80
2022-11-14T12:19:14.225Z,13.52
2022-11-14T12:21:58.576Z,13.77
2022-11-14T12:24:53.025Z,14.48
2022-11-14T12:27:29.868Z,13.57
2022-11-14T12:30:09.614Z,12.70
2022-11-14T12:32:45.092Z,12.90
2022-11-14T12:35:19.602Z,12.35
2022-11-14T12:37:52.702Z,13.77
2022-11-14T12:40:33.109Z,12.48
2022-11-14T12:43:00.798Z,12.23
2022-11-14T12:45:35.835Z,12.23
2022-11-14T12:48:25.342Z,12.02
2022-11-14T12:50:55.782Z,14.15
2022-11-14T12:53:37.430Z,13.13
2022-11-14T12:56:22.474Z,11.70
2022-11-14T12:59:23.349Z,11.60
2022-11-14T13:01:52.494Z,12.57
2022-11-14T13:04:57.961Z,12.68
2022-11-14T13:07:50.956Z,11.80
2022-11-14T13:10:30.625Z,11.90
2022-11-14T13:13:42.135Z,11.45
2022-11-14T13:16:42.731Z,12.27
2022-11-14T13:19:36.322Z,11.57
2022-11-14T13:22:20.312Z,12.02
2022-11-14T13:25:00.621Z,12.38
2022-11-14T13:27:52.098Z,11.30
2022-11-14T13:30:14.024Z,11.85
2022-11-14T13:32:43.016Z,11.27
2022-11-14T13:35:16.248Z,10.40
2022-11-14T13:37:54.632Z,11.30
2022-11-14T13:40:28.764Z,11.32
2022-11-14T13:43:17.405Z,10.80
2022-11-14T13:46:02.414Z,10.63
2022-11-14T13:48:35.902Z,10.07
2022-11-14T13:51:21.892Z,10.95
2022-11-14T13:53:52.436Z,10.18
2022-11-14T13:56:37.335Z,10.82
2022-11-14T13:59:17.852Z,9.82
2022-11-14T14:02:12.166Z,10.43
2022-11-14T14:05:10.476Z,9.82
2022-11-14T14:08:14.962Z,10.10
2022-11-14T14:10:47.601Z,10.75
2022-11-14T14:13:32.873Z,9.85
2022-11-14T14:16:06.115Z,10.95
2022-11-14T14:19:10.052Z,9.63
2022-11-14T14:21:49.462Z,9.73
2022-11-14T14:24:50.633Z,8.18
2022-11-14T14:27:16.904Z,9.30
2022-11-14T14:30:01.403Z,8.95
2022-11-14T14:34:56.915Z,9.15
2022-11-14T14:37:27.637Z,8.02
2022-11-14T14:40:05.384Z,8.77
2022-11-14T14:42:39.439Z,8.52
2022-11-14T14:45:14.306Z,8.40
2022-11-14T14:47:42.762Z,7.78
2022-11-14T14:50:24.084Z,7.70
2022-11-14T14:53:03.804Z,7.50
2022-11-14T14:55:34.805Z,6.53
2022-11-14T14:58:25.918Z,6.07
2022-11-14T15:01:06.938Z,6.65
2022-11-14T15:03:37.739Z,7.15
2022-11-14T15:06:07.501Z,6.10
2022-11-14T15:08:38.507Z,6.82
2022-11-14T15:11:06.063Z,6.35
2022-11-14T15:13:33.926Z,6.53
2022-11-14T15:16:01.715Z,5.88
2022-11-14T15:18:33.098Z,6.90
2022-11-14T15:21:26.656Z,12.23
2022-11-14T15:24:01.144Z,15.60
2022-11-14T15:26:29.137Z,11.98
2022-11-14T15:29:11.377Z,11.70
2022-11-14T15:31:37.984Z,9.70
2022-11-14T15:34:23.773Z,8.15
2022-11-14T15:37:16.135Z,7.28
2022-11-14T15:39:43.261Z,6.40
2022-11-14T15:42:14.024Z,7.07
2022-11-14T15:44:42.199Z,6.57
2022-11-14T15:47:26.177Z,6.55
2022-11-14T15:50:02.719Z,6.18
2022-11-14T15:52:35.434Z,5.80
2022-11-14T15:55:03.690Z,6.00
2022-11-14T15:57:31.764Z,5.60
2022-11-14T15:59:58.241Z,5.63
2022-11-14T16:02:29.800Z,5.25
2022-11-14T16:04:57.854Z,7.20
2022-11-14T16:07:24.560Z,6.05
2022-11-14T16:09:51.185Z,5.82
2022-11-14T16:12:17.527Z,5.05
2022-11-14T16:14:44.835Z,5.35
2022-11-14T16:17:14.130Z,5.38
2022-11-14T16:19:40.639Z,5.45
2022-11-14T16:22:11.304Z,6.28
2022-11-14T16:24:37.613Z,5.97
2022-11-14T16:27:04.022Z,6.07
2022-11-14T16:29:30.361Z,8.35
2022-11-14T16:31:56.672Z,9.57
2022-11-14T16:34:25.469Z,8.02
2022-11-14T16:36:58.189Z,12.30
2022-11-14T16:39:24.686Z,9.27
2022-11-14T16:41:51.033Z,9.43
2022-11-14T16:44:17.515Z,9.70
2022-11-14T16:46:45.157Z,9.35
2022-11-14T16:49:15.921Z,10.93
2022-11-14T16:51:48.167Z,9.85
2022-11-14T16:54:15.348Z,7.57
2022-11-14T16:56:41.694Z,12.20
2022-11-14T16:59:09.669Z,9.43
2022-11-14T17:01:36.220Z,7.97
2022-11-14T17:04:02.734Z,7.97
2022-11-14T17:06:29.688Z,8.45
2022-11-14T17:08:57.509Z,8.27
2022-11-14T17:11:24.724Z,8.50
2022-11-14T17:13:51.230Z,7.85
2022-11-14T17:16:17.958Z,8.35
2022-11-14T17:18:44.338Z,8.63
2022-11-14T17:21:11.840Z,7.15
2022-11-14T17:23:38.142Z,7.68
2022-11-14T17:26:11.709Z,8.65
2022-11-14T17:28:38.917Z,7.63
2022-11-14T17:31:08.431Z,7.43
2022-11-14T17:33:35.157Z,8.07
2022-11-14T17:36:06.355Z,7.43
2022-11-14T17:38:36.805Z,7.10
2022-11-14T17:41:06.692Z,8.45
2022-11-14T17:43:39.568Z,7.68
2022-11-14T17:46:11.160Z,10.18
2022-11-14T17:48:41.852Z,11.50
2022-11-14T17:51:10.991Z,11.20
2022-11-14T17:53:38.161Z,9.60
2022-11-14T17:56:04.579Z,9.23
2022-11-14T17:58:31.911Z,8.88
2022-11-14T18:01:01.410Z,8.90
2022-11-14T18:03:27.896Z,8.73
2022-11-14T18:06:10.389Z,7.95
2022-11-14T18:08:37.132Z,8.70
2022-11-14T18:11:04.930Z,7.68
2022-11-14T18:13:31.651Z,8.25
2022-11-14T18:16:03.729Z,8.82
2022-11-14T18:18:31.953Z,9.40
2022-11-14T18:20:59.231Z,10.80
2022-11-14T18:23:25.568Z,11.13
2022-11-14T18:25:52.081Z,10.00
2022-11-14T18:28:18.445Z,9.60
2022-11-14T18:30:55.439Z,9.95
2022-11-14T18:33:23.010Z,10.02
2022-11-14T18:35:59.111Z,9.75
2022-11-14T18:38:25.461Z,11.25
2022-11-14T18:40:56.949Z,10.73
2022-11-14T18:43:23.837Z,9.85
2022-11-14T18:45:50.817Z,11.20
2022-11-14T18:48:17.216Z,11.15
2022-11-14T18:50:43.745Z,10.73
2022-11-14T18:53:10.174Z,12.90
2022-11-14T18:55:41.812Z,11.77
2022-11-14T18:58:08.177Z,11.80
2022-11-14T19:00:35.414Z,11.18
2022-11-14T19:03:05.976Z,13.25
2022-11-14T19:05:35.353Z,11.57
2022-11-14T19:08:05.316Z,12.57
2022-11-14T19:10:31.654Z,11.98
2022-11-14T19:12:57.996Z,14.23
2022-11-14T19:15:24.413Z,11.80
2022-11-14T19:17:51.072Z,11.63
2022-11-14T19:20:17.409Z,12.32
2022-11-14T19:22:45.101Z,12.38
2022-11-14T19:25:11.423Z,11.13
2022-11-14T19:27:37.835Z,12.07
2022-11-14T19:30:04.444Z,12.32
2022-11-14T19:32:31.431Z,11.82
2022-11-14T19:34:57.785Z,11.95
2022-11-14T19:37:24.117Z,11.43
2022-11-14T19:39:55.106Z,11.27
2022-11-14T19:42:21.728Z,12.25
2022-11-14T19:44:49.766Z,12.50
2022-11-14T19:47:16.104Z,11.95
2022-11-14T19:49:42.764Z,11.27
2022-11-14T19:52:09.247Z,11.55
2022-11-14T19:54:35.922Z,12.18
2022-11-14T19:57:02.394Z,11.00
2022-11-14T19:59:28.802Z,11.55
2022-11-14T20:02:02.963Z,12.13
2022-11-14T20:04:30.232Z,12.00
2022-11-14T20:06:58.697Z,11.15
2022-11-14T20:09:25.108Z,12.85
2022-11-14T20:11:51.585Z,12.05
2022-11-14T20:14:18.102Z,12.18
2022-11-14T20:16:45.785Z,10.40
2022-11-14T20:19:13.509Z,11.75
2022-11-14T20:21:39.886Z,12.27
2022-11-14T20:24:06.285Z,12.65
2022-11-14T20:26:32.765Z,12.20
2022-11-14T20:28:59.492Z,11.70
2022-11-14T20:31:28.242Z,11.80
2022-11-14T20:33:54.839Z,11.93
2022-11-14T20:36:23.946Z,11.35
2022-11-14T20:38:50.927Z,11.23
2022-11-14T20:41:17.528Z,12.18
2022-11-14T20:43:44.009Z,10.70
2022-11-14T20:46:21.986Z,11.85
2022-11-14T20:48:49.015Z,11.45
2022-11-14T20:51:17.628Z,11.20
2022-11-14T20:53:44.386Z,11.40
2022-11-14T20:56:12.631Z,11.23
2022-11-14T20:58:46.867Z,11.35
2022-11-14T21:03:40.240Z,11.98
2022-11-14T21:06:08.076Z,11.15
2022-11-14T21:08:35.814Z,10.77
2022-11-14T21:11:04.434Z,11.35
2022-11-14T21:13:49.642Z,11.90
2022-11-14T21:16:21.540Z,12.15
2022-11-14T21:18:48.349Z,11.68
2022-11-14T21:21:19.429Z,11.75
2022-11-14T21:23:47.233Z,12.02
2022-11-14T21:26:22.710Z,11.45
2022-11-14T21:28:51.868Z,12.32
2022-11-14T21:31:33.669Z,12.43
2022-11-14T21:34:01.855Z,11.88
2022-11-14T21:36:45.857Z,12.15
2022-11-14T21:39:15.058Z,12.13
2022-11-14T21:41:42.268Z,11.68
2022-11-14T21:44:13.781Z,11.20
2022-11-14T21:46:40.572Z,11.90
2022-11-14T21:49:06.927Z,12.57
2022-11-14T21:51:33.305Z,28.90
2022-11-14T21:53:59.799Z,25.00
2022-11-14T21:56:30.888Z,17.45
2022-11-14T21:59:15.346Z,13.65
2022-11-14T22:02:03.146Z,11.80
2022-11-14T22:04:32.946Z,11.50
2022-11-14T22:07:05.349Z,11.23
2022-11-14T22:09:32.323Z,11.35
2022-11-14T22:11:59.254Z,11.32
2022-11-14T22:14:26.057Z,11.77
2022-11-14T22:16:52.572Z,11.90
2022-11-14T22:19:19.026Z,11.60
2022-11-14T22:21:45.674Z,11.57
2022-11-14T22:24:11.997Z,11.20
2022-11-14T22:26:39.983Z,11.07
2022-11-14T22:29:07.248Z,10.57
2022-11-14T22:31:33.640Z,11.07
2022-11-14T22:34:00.124Z,10.77
2022-11-14T22:36:27.010Z,10.35
2022-11-14T22:38:54.613Z,10.90
2022-11-14T22:41:30.512Z,10.82
2022-11-14T22:43:58.696Z,10.25
2022-11-14T22:46:28.028Z,11.93
2022-11-14T22:48:54.950Z,12.98
2022-11-14T22:51:23.052Z,11.85
2022-11-14T22:53:53.987Z,12.05
2022-11-14T22:56:22.653Z,11.13
2022-11-14T22:58:49.104Z,10.40
2022-11-14T23:01:27.330Z,10.93
2022-11-14T23:03:59.030Z,11.13
2022-11-14T23:06:25.873Z,9.93
2022-11-14T23:08:52.737Z,10.55
2022-11-14T23:11:24.766Z,11.07
2022-11-14T23:13:53.243Z,11.02
2022-11-14T23:16:24.387Z,11.50
2022-11-14T23:18:51.354Z,10.07
2022-11-14T23:21:20.348Z,11.02
2022-11-14T23:23:46.913Z,10.40
2022-11-14T23:26:15.784Z,10.35
2022-11-14T23:28:42.433Z,9.63
2022-11-14T23:31:10.330Z,10.52
2022-11-14T23:33:36.665Z,9.73
2022-11-14T23:36:03.380Z,9.80
2022-11-14T23:38:30.889Z,8.77
2022-11-14T23:40:59.289Z,9.60
2022-11-14T23:43:25.792Z,9.18
2022-11-14T23:45:52.217Z,9.38
2022-11-14T23:48:19.690Z,9.63
2022-11-14T23:50:49.757Z,10.32
2022-11-14T23:53:16.121Z,9.10
2022-11-14T23:55:42.581Z,9.02
2022-11-14T23:58:08.900Z,8.88
